sensor_id;sensor_type;location;lat;lon;timestamp;temperature;humidity
9057;DHT22;4563;54.756;9.400;2024-01-11T00:00:09;3.80;79.00
9057;DHT22;4563;54.756;9.400;2024-01-11T00:02:37;3.80;79.10
9057;DHT22;4563;54.756;9.400;2024-01-11T00:05:05;3.80;79.10
9057;DHT22;4563;54.756;9.400;2024-01-11T00:07:32;3.80;79.10
9057;DHT22;4563;54.756;9.400;2024-01-11T00:10:00;3.80;79.10
9057;DHT22;4563;54.756;9.400;2024-01-11T00:12:31;3.80;79.20
9057;DHT22;4563;54.756;9.400;2024-01-11T00:15:00;3.80;79.10
9057;DHT22;4563;54.756;9.400;2024-01-11T00:17:27;3.70;79.10
9057;DHT22;4563;54.756;9.400;2024-01-11T00:19:55;3.70;79.10
9057;DHT22;4563;54.756;9.400;2024-01-11T00:22:21;3.70;79.10
9057;DHT22;4563;54.756;9.400;2024-01-11T00:24:48;3.70;79.10
9057;DHT22;4563;54.756;9.400;2024-01-11T00:27:15;3.70;79.10
9057;DHT22;4563;54.756;9.400;2024-01-11T00:29:42;3.70;79.10
9057;DHT22;4563;54.756;9.400;2024-01-11T00:32:09;3.70;79.10
9057;DHT22;4563;54.756;9.400;2024-01-11T00:34:36;3.70;79.20
9057;DHT22;4563;54.756;9.400;2024-01-11T00:37:05;3.70;79.20
9057;DHT22;4563;54.756;9.400;2024-01-11T00:39:32;3.70;79.90
9057;DHT22;4563;54.756;9.400;2024-01-11T00:41:58;3.70;79.20
9057;DHT22;4563;54.756;9.400;2024-01-11T00:44:25;3.70;79.20
9057;DHT22;4563;54.756;9.400;2024-01-11T00:46:52;3.70;79.20
9057;DHT22;4563;54.756;9.400;2024-01-11T00:49:19;3.70;79.20
9057;DHT22;4563;54.756;9.400;2024-01-11T00:51:45;3.70;79.20
9057;DHT22;4563;54.756;9.400;2024-01-11T00:54:13;3.70;79.20
9057;DHT22;4563;54.756;9.400;2024-01-11T00:56:42;3.70;79.20
9057;DHT22;4563;54.756;9.400;2024-01-11T00:59:09;3.70;79.20
9057;DHT22;4563;54.756;9.400;2024-01-11T01:01:35;3.70;79.20
9057;DHT22;4563;54.756;9.400;2024-01-11T01:04:03;3.70;79.20
9057;DHT22;4563;54.756;9.400;2024-01-11T01:06:29;3.70;79.20
9057;DHT22;4563;54.756;9.400;2024-01-11T01:08:56;3.70;79.20
9057;DHT22;4563;54.756;9.400;2024-01-11T01:11:24;3.70;79.20
9057;DHT22;4563;54.756;9.400;2024-01-11T01:13:51;3.70;79.20
9057;DHT22;4563;54.756;9.400;2024-01-11T01:16:18;3.70;79.20
9057;DHT22;4563;54.756;9.400;2024-01-11T01:18:45;3.70;79.20
9057;DHT22;4563;54.756;9.400;2024-01-11T01:21:11;3.70;79.30
9057;DHT22;4563;54.756;9.400;2024-01-11T01:23:37;3.70;79.30
9057;DHT22;4563;54.756;9.400;2024-01-11T01:26:04;3.70;79.30
9057;DHT22;4563;54.756;9.400;2024-01-11T01:28:32;3.70;79.50
9057;DHT22;4563;54.756;9.400;2024-01-11T01:30:59;3.70;79.30
9057;DHT22;4563;54.756;9.400;2024-01-11T01:33:26;3.70;79.30
9057;DHT22;4563;54.756;9.400;2024-01-11T01:35:52;3.70;79.30
9057;DHT22;4563;54.756;9.400;2024-01-11T01:38:19;3.70;79.30
9057;DHT22;4563;54.756;9.400;2024-01-11T01:40:46;3.70;79.30
9057;DHT22;4563;54.756;9.400;2024-01-11T01:43:13;3.70;79.40
9057;DHT22;4563;54.756;9.400;2024-01-11T01:45:41;3.70;79.40
9057;DHT22;4563;54.756;9.400;2024-01-11T01:48:08;3.70;79.40
9057;DHT22;4563;54.756;9.400;2024-01-11T01:50:34;3.70;79.40
9057;DHT22;4563;54.756;9.400;2024-01-11T01:53:01;3.70;79.30
9057;DHT22;4563;54.756;9.400;2024-01-11T01:55:29;3.70;79.40
9057;DHT22;4563;54.756;9.400;2024-01-11T01:57:57;3.70;79.40
9057;DHT22;4563;54.756;9.400;2024-01-11T02:00:24;3.70;79.40
9057;DHT22;4563;54.756;9.400;2024-01-11T02:02:55;3.70;79.50
9057;DHT22;4563;54.756;9.400;2024-01-11T02:05:22;3.70;79.40
9057;DHT22;4563;54.756;9.400;2024-01-11T02:07:49;3.70;79.40
9057;DHT22;4563;54.756;9.400;2024-01-11T02:10:16;3.70;79.50
9057;DHT22;4563;54.756;9.400;2024-01-11T02:12:43;3.70;79.50
9057;DHT22;4563;54.756;9.400;2024-01-11T02:15:10;3.70;79.50
9057;DHT22;4563;54.756;9.400;2024-01-11T02:17:39;3.70;79.50
9057;DHT22;4563;54.756;9.400;2024-01-11T02:20:09;3.70;79.50
9057;DHT22;4563;54.756;9.400;2024-01-11T02:22:40;3.70;79.50
9057;DHT22;4563;54.756;9.400;2024-01-11T02:25:10;3.70;79.50
9057;DHT22;4563;54.756;9.400;2024-01-11T02:27:47;3.70;79.50
9057;DHT22;4563;54.756;9.400;2024-01-11T02:30:14;3.70;79.50
9057;DHT22;4563;54.756;9.400;2024-01-11T02:32:43;3.70;79.60
9057;DHT22;4563;54.756;9.400;2024-01-11T02:35:10;3.70;79.50
9057;DHT22;4563;54.756;9.400;2024-01-11T02:37:37;3.80;79.60
9057;DHT22;4563;54.756;9.400;2024-01-11T02:40:06;3.70;79.60
9057;DHT22;4563;54.756;9.400;2024-01-11T02:42:36;3.80;79.70
9057;DHT22;4563;54.756;9.400;2024-01-11T02:45:04;3.80;79.70
9057;DHT22;4563;54.756;9.400;2024-01-11T02:47:31;3.80;79.70
9057;DHT22;4563;54.756;9.400;2024-01-11T02:49:58;3.80;79.70
9057;DHT22;4563;54.756;9.400;2024-01-11T02:52:24;3.80;79.80
9057;DHT22;4563;54.756;9.400;2024-01-11T02:54:51;3.80;79.80
9057;DHT22;4563;54.756;9.400;2024-01-11T02:57:18;3.80;79.80
9057;DHT22;4563;54.756;9.400;2024-01-11T02:59:47;3.80;79.80
9057;DHT22;4563;54.756;9.400;2024-01-11T03:02:14;3.80;79.80
9057;DHT22;4563;54.756;9.400;2024-01-11T03:04:41;3.80;79.80
9057;DHT22;4563;54.756;9.400;2024-01-11T03:07:08;3.80;79.80
9057;DHT22;4563;54.756;9.400;2024-01-11T03:09:34;3.80;79.80
9057;DHT22;4563;54.756;9.400;2024-01-11T03:12:01;3.80;79.80
9057;DHT22;4563;54.756;9.400;2024-01-11T03:14:28;3.80;79.80
9057;DHT22;4563;54.756;9.400;2024-01-11T03:16:56;3.80;79.80
9057;DHT22;4563;54.756;9.400;2024-01-11T03:19:23;3.80;79.80
9057;DHT22;4563;54.756;9.400;2024-01-11T03:21:50;3.80;79.90
9057;DHT22;4563;54.756;9.400;2024-01-11T03:24:17;3.80;79.90
9057;DHT22;4563;54.756;9.400;2024-01-11T03:26:43;3.90;79.90
9057;DHT22;4563;54.756;9.400;2024-01-11T03:29:10;3.90;79.90
9057;DHT22;4563;54.756;9.400;2024-01-11T03:31:37;3.90;79.90
9057;DHT22;4563;54.756;9.400;2024-01-11T03:34:08;3.90;80.00
9057;DHT22;4563;54.756;9.400;2024-01-11T03:36:35;3.90;79.90
9057;DHT22;4563;54.756;9.400;2024-01-11T03:39:01;3.90;80.00
9057;DHT22;4563;54.756;9.400;2024-01-11T03:41:28;3.90;80.00
9057;DHT22;4563;54.756;9.400;2024-01-11T03:43:55;3.90;80.00
9057;DHT22;4563;54.756;9.400;2024-01-11T03:46:25;3.90;80.00
9057;DHT22;4563;54.756;9.400;2024-01-11T03:48:52;3.90;80.00
9057;DHT22;4563;54.756;9.400;2024-01-11T03:51:19;3.90;80.00
9057;DHT22;4563;54.756;9.400;2024-01-11T03:53:45;3.90;80.00
9057;DHT22;4563;54.756;9.400;2024-01-11T03:56:12;3.90;80.10
9057;DHT22;4563;54.756;9.400;2024-01-11T03:58:39;3.90;80.00
9057;DHT22;4563;54.756;9.400;2024-01-11T04:01:07;3.90;80.10
9057;DHT22;4563;54.756;9.400;2024-01-11T04:03:35;3.90;80.10
9057;DHT22;4563;54.756;9.400;2024-01-11T04:06:02;3.90;80.10
9057;DHT22;4563;54.756;9.400;2024-01-11T04:08:30;3.90;80.10
9057;DHT22;4563;54.756;9.400;2024-01-11T04:10:57;3.90;80.10
9057;DHT22;4563;54.756;9.400;2024-01-11T04:13:24;3.90;80.20
9057;DHT22;4563;54.756;9.400;2024-01-11T04:15:50;3.90;80.90
9057;DHT22;4563;54.756;9.400;2024-01-11T04:18:17;3.90;80.20
9057;DHT22;4563;54.756;9.400;2024-01-11T04:20:44;3.90;80.20
9057;DHT22;4563;54.756;9.400;2024-01-11T04:23:11;3.90;80.20
9057;DHT22;4563;54.756;9.400;2024-01-11T04:25:39;3.90;80.20
9057;DHT22;4563;54.756;9.400;2024-01-11T04:28:06;3.90;80.20
9057;DHT22;4563;54.756;9.400;2024-01-11T04:30:33;3.90;80.20
9057;DHT22;4563;54.756;9.400;2024-01-11T04:33:00;3.90;80.30
9057;DHT22;4563;54.756;9.400;2024-01-11T04:35:27;3.90;80.30
9057;DHT22;4563;54.756;9.400;2024-01-11T04:37:54;3.90;80.90
9057;DHT22;4563;54.756;9.400;2024-01-11T04:40:21;3.90;80.80
9057;DHT22;4563;54.756;9.400;2024-01-11T04:42:49;3.90;80.70
9057;DHT22;4563;54.756;9.400;2024-01-11T04:45:16;3.90;80.70
9057;DHT22;4563;54.756;9.400;2024-01-11T04:47:42;3.90;80.60
9057;DHT22;4563;54.756;9.400;2024-01-11T04:50:09;3.90;80.60
9057;DHT22;4563;54.756;9.400;2024-01-11T04:52:37;3.90;80.50
9057;DHT22;4563;54.756;9.400;2024-01-11T04:55:05;3.90;80.40
9057;DHT22;4563;54.756;9.400;2024-01-11T04:57:32;3.90;80.40
9057;DHT22;4563;54.756;9.400;2024-01-11T05:00:00;3.90;80.40
9057;DHT22;4563;54.756;9.400;2024-01-11T05:02:27;3.90;80.40
9057;DHT22;4563;54.756;9.400;2024-01-11T05:04:54;3.90;80.30
9057;DHT22;4563;54.756;9.400;2024-01-11T05:07:21;3.90;80.30
9057;DHT22;4563;54.756;9.400;2024-01-11T05:09:47;4.00;80.40
9057;DHT22;4563;54.756;9.400;2024-01-11T05:12:14;4.00;80.40
9057;DHT22;4563;54.756;9.400;2024-01-11T05:14:42;3.90;80.30
9057;DHT22;4563;54.756;9.400;2024-01-11T05:17:10;4.00;80.40
9057;DHT22;4563;54.756;9.400;2024-01-11T05:19:36;4.00;80.40
9057;DHT22;4563;54.756;9.400;2024-01-11T05:22:03;4.00;80.30
9057;DHT22;4563;54.756;9.400;2024-01-11T05:24:30;4.00;80.40
9057;DHT22;4563;54.756;9.400;2024-01-11T05:26:57;4.00;80.30
9057;DHT22;4563;54.756;9.400;2024-01-11T05:29:25;4.00;80.40
9057;DHT22;4563;54.756;9.400;2024-01-11T05:31:51;4.00;80.40
9057;DHT22;4563;54.756;9.400;2024-01-11T05:34:20;4.00;80.40
9057;DHT22;4563;54.756;9.400;2024-01-11T05:36:47;4.00;80.40
9057;DHT22;4563;54.756;9.400;2024-01-11T05:39:13;4.00;80.40
9057;DHT22;4563;54.756;9.400;2024-01-11T05:41:43;4.00;80.40
9057;DHT22;4563;54.756;9.400;2024-01-11T05:44:10;4.00;80.40
9057;DHT22;4563;54.756;9.400;2024-01-11T05:46:36;4.00;80.40
9057;DHT22;4563;54.756;9.400;2024-01-11T05:49:03;4.00;81.10
9057;DHT22;4563;54.756;9.400;2024-01-11T05:51:32;4.00;80.40
9057;DHT22;4563;54.756;9.400;2024-01-11T05:53:58;4.00;80.50
9057;DHT22;4563;54.756;9.400;2024-01-11T05:56:25;4.00;80.50
9057;DHT22;4563;54.756;9.400;2024-01-11T05:58:53;4.00;80.50
9057;DHT22;4563;54.756;9.400;2024-01-11T06:01:20;4.00;80.50
9057;DHT22;4563;54.756;9.400;2024-01-11T06:03:47;4.00;80.50
9057;DHT22;4563;54.756;9.400;2024-01-11T06:06:14;4.00;80.50
9057;DHT22;4563;54.756;9.400;2024-01-11T06:08:42;4.00;80.50
9057;DHT22;4563;54.756;9.400;2024-01-11T06:11:09;4.00;80.50
9057;DHT22;4563;54.756;9.400;2024-01-11T06:13:36;4.00;80.50
9057;DHT22;4563;54.756;9.400;2024-01-11T06:16:03;4.00;80.50
9057;DHT22;4563;54.756;9.400;2024-01-11T06:18:30;4.00;80.50
9057;DHT22;4563;54.756;9.400;2024-01-11T06:20:57;4.00;80.50
9057;DHT22;4563;54.756;9.400;2024-01-11T06:23:25;4.10;80.60
9057;DHT22;4563;54.756;9.400;2024-01-11T06:25:53;4.00;80.60
9057;DHT22;4563;54.756;9.400;2024-01-11T06:28:20;4.00;80.60
9057;DHT22;4563;54.756;9.400;2024-01-11T06:30:46;4.10;80.70
9057;DHT22;4563;54.756;9.400;2024-01-11T06:33:13;4.10;80.70
9057;DHT22;4563;54.756;9.400;2024-01-11T06:35:40;4.10;80.70
9057;DHT22;4563;54.756;9.400;2024-01-11T06:38:07;4.10;80.70
9057;DHT22;4563;54.756;9.400;2024-01-11T06:40:34;4.10;80.70
9057;DHT22;4563;54.756;9.400;2024-01-11T06:43:03;4.10;80.70
9057;DHT22;4563;54.756;9.400;2024-01-11T06:45:29;4.10;80.70
9057;DHT22;4563;54.756;9.400;2024-01-11T06:47:56;4.10;80.70
9057;DHT22;4563;54.756;9.400;2024-01-11T06:50:23;4.10;80.80
9057;DHT22;4563;54.756;9.400;2024-01-11T06:52:50;4.20;80.80
9057;DHT22;4563;54.756;9.400;2024-01-11T06:55:17;4.20;80.80
9057;DHT22;4563;54.756;9.400;2024-01-11T06:57:46;4.20;80.80
9057;DHT22;4563;54.756;9.400;2024-01-11T07:00:15;4.20;80.80
9057;DHT22;4563;54.756;9.400;2024-01-11T07:02:42;4.20;80.80
9057;DHT22;4563;54.756;9.400;2024-01-11T07:05:08;4.20;80.80
9057;DHT22;4563;54.756;9.400;2024-01-11T07:07:35;4.20;80.80
9057;DHT22;4563;54.756;9.400;2024-01-11T07:10:02;4.30;80.90
9057;DHT22;4563;54.756;9.400;2024-01-11T07:12:31;4.30;80.90
9057;DHT22;4563;54.756;9.400;2024-01-11T07:14:58;4.30;80.90
9057;DHT22;4563;54.756;9.400;2024-01-11T07:17:26;4.30;80.90
9057;DHT22;4563;54.756;9.400;2024-01-11T07:19:53;4.30;80.80
9057;DHT22;4563;54.756;9.400;2024-01-11T07:22:19;4.30;80.90
9057;DHT22;4563;54.756;9.400;2024-01-11T07:24:46;4.30;80.90
9057;DHT22;4563;54.756;9.400;2024-01-11T07:27:13;4.30;80.90
9057;DHT22;4563;54.756;9.400;2024-01-11T07:29:40;4.30;80.90
9057;DHT22;4563;54.756;9.400;2024-01-11T07:32:07;4.30;80.90
9057;DHT22;4563;54.756;9.400;2024-01-11T07:34:35;4.30;80.90
9057;DHT22;4563;54.756;9.400;2024-01-11T07:37:02;4.40;81.00
9057;DHT22;4563;54.756;9.400;2024-01-11T07:39:29;4.40;81.00
9057;DHT22;4563;54.756;9.400;2024-01-11T07:41:56;4.40;81.00
9057;DHT22;4563;54.756;9.400;2024-01-11T07:44:23;4.40;81.00
9057;DHT22;4563;54.756;9.400;2024-01-11T07:46:50;4.40;81.00
9057;DHT22;4563;54.756;9.400;2024-01-11T07:49:16;4.40;81.00
9057;DHT22;4563;54.756;9.400;2024-01-11T07:51:45;4.40;81.00
9057;DHT22;4563;54.756;9.400;2024-01-11T07:54:11;4.40;81.00
9057;DHT22;4563;54.756;9.400;2024-01-11T07:56:38;4.40;81.00
9057;DHT22;4563;54.756;9.400;2024-01-11T07:59:06;4.40;81.00
9057;DHT22;4563;54.756;9.400;2024-01-11T08:01:32;4.40;81.00
9057;DHT22;4563;54.756;9.400;2024-01-11T08:04:00;4.40;81.00
9057;DHT22;4563;54.756;9.400;2024-01-11T08:06:28;4.40;81.00
9057;DHT22;4563;54.756;9.400;2024-01-11T08:08:56;4.50;81.10
9057;DHT22;4563;54.756;9.400;2024-01-11T08:11:23;4.50;81.10
9057;DHT22;4563;54.756;9.400;2024-01-11T08:13:49;4.50;81.10
9057;DHT22;4563;54.756;9.400;2024-01-11T08:16:19;4.50;81.10
9057;DHT22;4563;54.756;9.400;2024-01-11T08:18:45;4.50;81.10
9057;DHT22;4563;54.756;9.400;2024-01-11T08:21:14;4.50;81.10
9057;DHT22;4563;54.756;9.400;2024-01-11T08:23:41;4.50;81.10
9057;DHT22;4563;54.756;9.400;2024-01-11T08:26:11;4.50;81.10
9057;DHT22;4563;54.756;9.400;2024-01-11T08:28:39;4.50;81.10
9057;DHT22;4563;54.756;9.400;2024-01-11T08:31:06;4.50;81.10
9057;DHT22;4563;54.756;9.400;2024-01-11T08:33:34;4.50;81.10
9057;DHT22;4563;54.756;9.400;2024-01-11T08:36:02;4.50;81.20
9057;DHT22;4563;54.756;9.400;2024-01-11T08:38:29;4.60;81.30
9057;DHT22;4563;54.756;9.400;2024-01-11T08:40:57;4.60;81.40
9057;DHT22;4563;54.756;9.400;2024-01-11T08:43:26;4.60;81.40
9057;DHT22;4563;54.756;9.400;2024-01-11T08:45:53;4.60;81.30
9057;DHT22;4563;54.756;9.400;2024-01-11T08:48:20;4.60;81.40
9057;DHT22;4563;54.756;9.400;2024-01-11T08:50:47;4.60;81.40
9057;DHT22;4563;54.756;9.400;2024-01-11T08:53:14;4.60;81.40
9057;DHT22;4563;54.756;9.400;2024-01-11T08:55:42;4.70;81.50
9057;DHT22;4563;54.756;9.400;2024-01-11T08:58:09;4.60;81.40
9057;DHT22;4563;54.756;9.400;2024-01-11T09:00:38;4.70;81.60
9057;DHT22;4563;54.756;9.400;2024-01-11T09:03:04;4.70;81.60
9057;DHT22;4563;54.756;9.400;2024-01-11T09:05:31;4.70;81.60
9057;DHT22;4563;54.756;9.400;2024-01-11T09:07:58;4.70;81.60
9057;DHT22;4563;54.756;9.400;2024-01-11T09:10:25;4.70;81.60
9057;DHT22;4563;54.756;9.400;2024-01-11T09:12:52;4.70;81.60
9057;DHT22;4563;54.756;9.400;2024-01-11T09:15:20;4.80;81.70
9057;DHT22;4563;54.756;9.400;2024-01-11T09:17:48;4.80;81.70
9057;DHT22;4563;54.756;9.400;2024-01-11T09:20:15;4.80;81.80
9057;DHT22;4563;54.756;9.400;2024-01-11T09:22:42;4.80;81.80
9057;DHT22;4563;54.756;9.400;2024-01-11T09:25:09;4.80;81.80
9057;DHT22;4563;54.756;9.400;2024-01-11T09:27:35;4.80;81.80
9057;DHT22;4563;54.756;9.400;2024-01-11T09:30:03;4.90;81.90
9057;DHT22;4563;54.756;9.400;2024-01-11T09:32:30;4.90;82.00
9057;DHT22;4563;54.756;9.400;2024-01-11T09:34:58;4.90;82.00
9057;DHT22;4563;54.756;9.400;2024-01-11T09:37:25;4.90;82.00
9057;DHT22;4563;54.756;9.400;2024-01-11T09:39:51;5.00;82.10
9057;DHT22;4563;54.756;9.400;2024-01-11T09:42:18;5.00;82.00
9057;DHT22;4563;54.756;9.400;2024-01-11T09:44:46;5.00;82.10
9057;DHT22;4563;54.756;9.400;2024-01-11T09:47:15;5.00;82.00
9057;DHT22;4563;54.756;9.400;2024-01-11T09:49:43;5.10;82.20
9057;DHT22;4563;54.756;9.400;2024-01-11T09:52:13;5.10;82.20
9057;DHT22;4563;54.756;9.400;2024-01-11T09:54:42;5.10;82.20
9057;DHT22;4563;54.756;9.400;2024-01-11T09:57:09;5.20;82.20
9057;DHT22;4563;54.756;9.400;2024-01-11T09:59:36;5.20;82.30
9057;DHT22;4563;54.756;9.400;2024-01-11T10:02:04;5.20;82.30
9057;DHT22;4563;54.756;9.400;2024-01-11T10:04:33;5.20;82.30
9057;DHT22;4563;54.756;9.400;2024-01-11T10:07:03;5.30;82.40
9057;DHT22;4563;54.756;9.400;2024-01-11T10:09:32;5.30;82.40
9057;DHT22;4563;54.756;9.400;2024-01-11T10:11:59;5.30;82.30
9057;DHT22;4563;54.756;9.400;2024-01-11T10:14:26;5.40;82.50
9057;DHT22;4563;54.756;9.400;2024-01-11T10:16:54;5.40;82.50
9057;DHT22;4563;54.756;9.400;2024-01-11T10:19:21;5.40;82.50
9057;DHT22;4563;54.756;9.400;2024-01-11T10:21:48;5.40;82.50
9057;DHT22;4563;54.756;9.400;2024-01-11T10:24:18;5.50;82.60
9057;DHT22;4563;54.756;9.400;2024-01-11T10:26:47;5.50;82.60
9057;DHT22;4563;54.756;9.400;2024-01-11T10:29:14;5.50;82.60
9057;DHT22;4563;54.756;9.400;2024-01-11T10:31:41;5.50;82.60
9057;DHT22;4563;54.756;9.400;2024-01-11T10:34:07;5.60;82.70
9057;DHT22;4563;54.756;9.400;2024-01-11T10:36:34;5.60;82.70
9057;DHT22;4563;54.756;9.400;2024-01-11T10:39:03;5.60;82.70
9057;DHT22;4563;54.756;9.400;2024-01-11T10:41:35;5.60;82.70
9057;DHT22;4563;54.756;9.400;2024-01-11T10:44:07;5.60;82.70
9057;DHT22;4563;54.756;9.400;2024-01-11T10:46:41;5.60;82.70
9057;DHT22;4563;54.756;9.400;2024-01-11T10:49:09;5.70;82.80
9057;DHT22;4563;54.756;9.400;2024-01-11T10:51:38;5.70;82.80
9057;DHT22;4563;54.756;9.400;2024-01-11T10:54:06;5.70;82.80
9057;DHT22;4563;54.756;9.400;2024-01-11T10:56:33;5.70;82.80
9057;DHT22;4563;54.756;9.400;2024-01-11T10:59:02;5.70;82.80
9057;DHT22;4563;54.756;9.400;2024-01-11T11:01:31;5.80;83.00
9057;DHT22;4563;54.756;9.400;2024-01-11T11:03:59;5.80;82.90
9057;DHT22;4563;54.756;9.400;2024-01-11T11:06:27;5.80;82.90
9057;DHT22;4563;54.756;9.400;2024-01-11T11:08:55;5.80;82.90
9057;DHT22;4563;54.756;9.400;2024-01-11T11:11:24;5.80;82.90
9057;DHT22;4563;54.756;9.400;2024-01-11T11:13:51;5.80;82.90
9057;DHT22;4563;54.756;9.400;2024-01-11T11:16:18;5.80;82.90
9057;DHT22;4563;54.756;9.400;2024-01-11T11:18:46;5.90;83.00
9057;DHT22;4563;54.756;9.400;2024-01-11T11:21:15;5.90;83.00
9057;DHT22;4563;54.756;9.400;2024-01-11T11:23:42;5.90;83.00
9057;DHT22;4563;54.756;9.400;2024-01-11T11:26:15;5.90;83.00
9057;DHT22;4563;54.756;9.400;2024-01-11T11:28:42;6.00;83.10
9057;DHT22;4563;54.756;9.400;2024-01-11T11:31:11;6.00;83.00
9057;DHT22;4563;54.756;9.400;2024-01-11T11:33:38;6.00;83.10
9057;DHT22;4563;54.756;9.400;2024-01-11T11:36:12;6.00;83.00
9057;DHT22;4563;54.756;9.400;2024-01-11T11:38:39;6.00;83.00
9057;DHT22;4563;54.756;9.400;2024-01-11T11:41:07;6.00;83.10
9057;DHT22;4563;54.756;9.400;2024-01-11T11:43:34;6.00;83.00
9057;DHT22;4563;54.756;9.400;2024-01-11T11:46:02;6.10;83.10
9057;DHT22;4563;54.756;9.400;2024-01-11T11:48:49;6.10;83.10
9057;DHT22;4563;54.756;9.400;2024-01-11T11:51:18;6.10;83.10
9057;DHT22;4563;54.756;9.400;2024-01-11T11:53:47;6.10;83.10
9057;DHT22;4563;54.756;9.400;2024-01-11T11:56:16;6.10;83.10
9057;DHT22;4563;54.756;9.400;2024-01-11T11:58:44;6.10;83.10
9057;DHT22;4563;54.756;9.400;2024-01-11T12:01:13;6.10;83.10
9057;DHT22;4563;54.756;9.400;2024-01-11T12:03:41;6.10;83.10
9057;DHT22;4563;54.756;9.400;2024-01-11T12:06:27;6.20;83.20
9057;DHT22;4563;54.756;9.400;2024-01-11T12:08:54;6.20;83.10
9057;DHT22;4563;54.756;9.400;2024-01-11T12:11:22;6.20;83.20
9057;DHT22;4563;54.756;9.400;2024-01-11T12:13:50;6.20;83.20
9057;DHT22;4563;54.756;9.400;2024-01-11T12:16:19;6.20;83.20
9057;DHT22;4563;54.756;9.400;2024-01-11T12:18:46;6.20;83.20
9057;DHT22;4563;54.756;9.400;2024-01-11T12:21:13;6.20;83.20
9057;DHT22;4563;54.756;9.400;2024-01-11T12:23:44;6.20;83.20
9057;DHT22;4563;54.756;9.400;2024-01-11T12:26:11;6.20;83.20
9057;DHT22;4563;54.756;9.400;2024-01-11T12:28:40;6.20;83.20
9057;DHT22;4563;54.756;9.400;2024-01-11T12:31:07;6.30;83.40
9057;DHT22;4563;54.756;9.400;2024-01-11T12:33:34;6.20;83.20
9057;DHT22;4563;54.756;9.400;2024-01-11T12:36:05;6.20;83.20
9057;DHT22;4563;54.756;9.400;2024-01-11T12:38:33;6.30;83.30
9057;DHT22;4563;54.756;9.400;2024-01-11T12:41:02;6.30;83.30
9057;DHT22;4563;54.756;9.400;2024-01-11T12:43:29;6.30;83.30
9057;DHT22;4563;54.756;9.400;2024-01-11T12:45:56;6.30;83.30
9057;DHT22;4563;54.756;9.400;2024-01-11T12:48:23;6.30;83.30
9057;DHT22;4563;54.756;9.400;2024-01-11T12:50:50;6.30;83.30
9057;DHT22;4563;54.756;9.400;2024-01-11T12:53:19;6.30;83.30
9057;DHT22;4563;54.756;9.400;2024-01-11T12:55:46;6.30;83.30
9057;DHT22;4563;54.756;9.400;2024-01-11T12:58:20;6.40;83.40
9057;DHT22;4563;54.756;9.400;2024-01-11T13:00:47;6.30;83.30
9057;DHT22;4563;54.756;9.400;2024-01-11T13:03:14;6.30;83.30
9057;DHT22;4563;54.756;9.400;2024-01-11T13:05:41;6.40;83.40
9057;DHT22;4563;54.756;9.400;2024-01-11T13:08:09;6.40;83.40
9057;DHT22;4563;54.756;9.400;2024-01-11T13:10:36;6.40;83.40
9057;DHT22;4563;54.756;9.400;2024-01-11T13:13:04;6.40;83.40
9057;DHT22;4563;54.756;9.400;2024-01-11T13:15:32;6.50;83.50
9057;DHT22;4563;54.756;9.400;2024-01-11T13:18:00;6.40;83.40
9057;DHT22;4563;54.756;9.400;2024-01-11T13:20:27;6.40;83.50
9057;DHT22;4563;54.756;9.400;2024-01-11T13:23:12;6.40;83.40
9057;DHT22;4563;54.756;9.400;2024-01-11T13:25:39;6.50;83.40
9057;DHT22;4563;54.756;9.400;2024-01-11T13:28:06;6.40;83.40
9057;DHT22;4563;54.756;9.400;2024-01-11T13:30:35;6.50;84.20
9057;DHT22;4563;54.756;9.400;2024-01-11T13:33:01;6.40;83.40
9057;DHT22;4563;54.756;9.400;2024-01-11T13:35:28;6.50;83.50
9057;DHT22;4563;54.756;9.400;2024-01-11T13:37:55;6.40;83.30
9057;DHT22;4563;54.756;9.400;2024-01-11T13:40:22;6.40;83.40
9057;DHT22;4563;54.756;9.400;2024-01-11T13:42:50;6.50;84.10
9057;DHT22;4563;54.756;9.400;2024-01-11T13:45:17;6.50;83.50
9057;DHT22;4563;54.756;9.400;2024-01-11T13:47:45;6.50;83.50
9057;DHT22;4563;54.756;9.400;2024-01-11T13:50:12;6.50;83.40
9057;DHT22;4563;54.756;9.400;2024-01-11T13:52:39;6.40;83.20
9057;DHT22;4563;54.756;9.400;2024-01-11T13:55:07;6.40;83.20
9057;DHT22;4563;54.756;9.400;2024-01-11T13:57:35;6.50;83.30
9057;DHT22;4563;54.756;9.400;2024-01-11T14:00:02;6.50;83.30
9057;DHT22;4563;54.756;9.400;2024-01-11T14:02:30;6.40;83.20
9057;DHT22;4563;54.756;9.400;2024-01-11T14:04:58;6.40;83.10
9057;DHT22;4563;54.756;9.400;2024-01-11T14:07:25;6.40;83.10
9057;DHT22;4563;54.756;9.400;2024-01-11T14:09:52;6.40;83.00
9057;DHT22;4563;54.756;9.400;2024-01-11T14:12:19;6.40;83.00
9057;DHT22;4563;54.756;9.400;2024-01-11T14:14:46;6.40;83.00
9057;DHT22;4563;54.756;9.400;2024-01-11T14:17:13;6.40;82.90
9057;DHT22;4563;54.756;9.400;2024-01-11T14:19:40;6.40;82.80
9057;DHT22;4563;54.756;9.400;2024-01-11T14:22:08;6.40;82.70
9057;DHT22;4563;54.756;9.400;2024-01-11T14:24:35;6.40;82.70
9057;DHT22;4563;54.756;9.400;2024-01-11T14:27:02;6.40;82.70
9057;DHT22;4563;54.756;9.400;2024-01-11T14:29:28;6.40;82.60
9057;DHT22;4563;54.756;9.400;2024-01-11T14:31:55;6.40;82.50
9057;DHT22;4563;54.756;9.400;2024-01-11T14:34:22;6.30;82.30
9057;DHT22;4563;54.756;9.400;2024-01-11T14:36:49;6.30;82.30
9057;DHT22;4563;54.756;9.400;2024-01-11T14:39:18;6.30;82.20
9057;DHT22;4563;54.756;9.400;2024-01-11T14:41:45;6.30;82.10
9057;DHT22;4563;54.756;9.400;2024-01-11T14:44:12;6.30;82.10
9057;DHT22;4563;54.756;9.400;2024-01-11T14:46:39;6.30;82.00
9057;DHT22;4563;54.756;9.400;2024-01-11T14:49:07;6.30;82.00
9057;DHT22;4563;54.756;9.400;2024-01-11T14:51:34;6.30;81.90
9057;DHT22;4563;54.756;9.400;2024-01-11T14:54:03;6.30;81.80
9057;DHT22;4563;54.756;9.400;2024-01-11T14:56:31;6.30;81.80
9057;DHT22;4563;54.756;9.400;2024-01-11T14:58:58;6.30;81.70
9057;DHT22;4563;54.756;9.400;2024-01-11T15:01:25;6.20;81.60
9057;DHT22;4563;54.756;9.400;2024-01-11T15:03:52;6.20;81.60
9057;DHT22;4563;54.756;9.400;2024-01-11T15:06:19;6.20;81.60
9057;DHT22;4563;54.756;9.400;2024-01-11T15:08:45;6.20;81.50
9057;DHT22;4563;54.756;9.400;2024-01-11T15:11:12;6.20;81.40
9057;DHT22;4563;54.756;9.400;2024-01-11T15:13:40;6.20;81.40
9057;DHT22;4563;54.756;9.400;2024-01-11T15:16:07;6.20;81.30
9057;DHT22;4563;54.756;9.400;2024-01-11T15:18:34;6.10;81.20
9057;DHT22;4563;54.756;9.400;2024-01-11T15:21:01;6.10;81.10
9057;DHT22;4563;54.756;9.400;2024-01-11T15:23:28;6.10;81.10
9057;DHT22;4563;54.756;9.400;2024-01-11T15:25:55;6.10;81.10
9057;DHT22;4563;54.756;9.400;2024-01-11T15:28:22;6.10;80.90
9057;DHT22;4563;54.756;9.400;2024-01-11T15:30:50;6.00;80.90
9057;DHT22;4563;54.756;9.400;2024-01-11T15:33:17;6.00;80.70
9057;DHT22;4563;54.756;9.400;2024-01-11T15:35:44;6.00;80.70
9057;DHT22;4563;54.756;9.400;2024-01-11T15:38:12;6.00;80.70
9057;DHT22;4563;54.756;9.400;2024-01-11T15:40:39;5.90;80.60
9057;DHT22;4563;54.756;9.400;2024-01-11T15:43:06;5.90;80.50
9057;DHT22;4563;54.756;9.400;2024-01-11T15:45:33;5.90;80.50
9057;DHT22;4563;54.756;9.400;2024-01-11T15:48:01;5.90;80.50
9057;DHT22;4563;54.756;9.400;2024-01-11T15:50:28;5.90;80.50
9057;DHT22;4563;54.756;9.400;2024-01-11T15:52:55;5.80;80.40
9057;DHT22;4563;54.756;9.400;2024-01-11T15:55:22;5.80;80.40
9057;DHT22;4563;54.756;9.400;2024-01-11T15:57:49;5.80;80.40
9057;DHT22;4563;54.756;9.400;2024-01-11T16:00:19;5.80;80.40
9057;DHT22;4563;54.756;9.400;2024-01-11T16:02:46;5.70;80.30
9057;DHT22;4563;54.756;9.400;2024-01-11T16:05:14;5.70;80.20
9057;DHT22;4563;54.756;9.400;2024-01-11T16:07:41;5.70;80.20
9057;DHT22;4563;54.756;9.400;2024-01-11T16:10:09;5.60;80.00
9057;DHT22;4563;54.756;9.400;2024-01-11T16:12:36;5.70;80.10
9057;DHT22;4563;54.756;9.400;2024-01-11T16:15:04;5.60;79.90
9057;DHT22;4563;54.756;9.400;2024-01-11T16:17:31;5.60;80.30